sensor_id;sensor_type;location;lat;lon;timestamp;P1;durP1;ratioP1;P2;durP2;ratioP2
8353;SDS011;4656;48.090;11.498;2023-04-08T00:01:41;10.57;;;7.55;;
8353;SDS011;4656;48.090;11.498;2023-04-08T00:03:43;13.00;;;8.27;;
8353;SDS011;4656;48.090;11.498;2023-04-08T00:05:45;10.85;;;7.78;;
8353;SDS011;4656;48.090;11.498;2023-04-08T00:07:47;9.57;;;7.35;;
8353;SDS011;4656;48.090;11.498;2023-04-08T00:09:50;11.27;;;7.97;;
8353;SDS011;4656;48.090;11.498;2023-04-08T00:11:56;13.05;;;8.05;;
8353;SDS011;4656;48.090;11.498;2023-04-08T00:13:58;12.02;;;7.88;;
8353;SDS011;4656;48.090;11.498;2023-04-08T00:16:01;10.93;;;7.55;;
8353;SDS011;4656;48.090;11.498;2023-04-08T00:18:03;11.60;;;8.27;;
8353;SDS011;4656;48.090;11.498;2023-04-08T00:20:06;12.45;;;7.80;;
8353;SDS011;4656;48.090;11.498;2023-04-08T00:22:08;10.60;;;7.53;;
8353;SDS011;4656;48.090;11.498;2023-04-08T00:24:10;10.73;;;7.63;;
8353;SDS011;4656;48.090;11.498;2023-04-08T00:26:14;12.00;;;7.70;;
8353;SDS011;4656;48.090;11.498;2023-04-08T00:28:16;10.57;;;8.10;;
8353;SDS011;4656;48.090;11.498;2023-04-08T00:30:18;12.10;;;7.78;;
8353;SDS011;4656;48.090;11.498;2023-04-08T00:32:21;9.48;;;6.97;;
8353;SDS011;4656;48.090;11.498;2023-04-08T00:34:23;8.90;;;6.90;;
8353;SDS011;4656;48.090;11.498;2023-04-08T00:36:28;11.32;;;7.30;;
8353;SDS011;4656;48.090;11.498;2023-04-08T00:38:32;12.82;;;7.50;;
8353;SDS011;4656;48.090;11.498;2023-04-08T00:40:34;11.18;;;7.28;;
8353;SDS011;4656;48.090;11.498;2023-04-08T00:42:37;9.80;;;7.18;;
8353;SDS011;4656;48.090;11.498;2023-04-08T00:44:41;10.00;;;7.28;;
8353;SDS011;4656;48.090;11.498;2023-04-08T00:46:44;10.48;;;6.43;;
8353;SDS011;4656;48.090;11.498;2023-04-08T00:48:46;8.73;;;6.63;;
8353;SDS011;4656;48.090;11.498;2023-04-08T00:50:48;10.40;;;6.45;;
8353;SDS011;4656;48.090;11.498;2023-04-08T00:52:50;10.13;;;6.50;;
8353;SDS011;4656;48.090;11.498;2023-04-08T00:54:52;9.30;;;6.85;;
8353;SDS011;4656;48.090;11.498;2023-04-08T00:56:55;9.23;;;6.93;;
8353;SDS011;4656;48.090;11.498;2023-04-08T00:59:00;12.25;;;6.93;;
8353;SDS011;4656;48.090;11.498;2023-04-08T01:01:04;12.90;;;8.30;;
8353;SDS011;4656;48.090;11.498;2023-04-08T01:03:09;9.63;;;7.07;;
8353;SDS011;4656;48.090;11.498;2023-04-08T01:05:19;10.20;;;6.53;;
8353;SDS011;4656;48.090;11.498;2023-04-08T01:07:24;9.20;;;6.88;;
8353;SDS011;4656;48.090;11.498;2023-04-08T01:09:29;9.23;;;6.80;;
8353;SDS011;4656;48.090;11.498;2023-04-08T01:11:31;11.20;;;6.65;;
8353;SDS011;4656;48.090;11.498;2023-04-08T01:13:36;10.25;;;7.03;;
8353;SDS011;4656;48.090;11.498;2023-04-08T01:15:42;11.32;;;7.47;;
8353;SDS011;4656;48.090;11.498;2023-04-08T01:17:46;10.38;;;7.15;;
8353;SDS011;4656;48.090;11.498;2023-04-08T01:19:49;12.02;;;7.75;;
8353;SDS011;4656;48.090;11.498;2023-04-08T01:21:51;10.18;;;7.18;;
8353;SDS011;4656;48.090;11.498;2023-04-08T01:23:57;12.27;;;8.30;;
8353;SDS011;4656;48.090;11.498;2023-04-08T01:26:02;9.52;;;7.50;;
8353;SDS011;4656;48.090;11.498;2023-04-08T01:28:05;10.45;;;7.35;;
8353;SDS011;4656;48.090;11.498;2023-04-08T01:30:08;10.35;;;7.60;;
8353;SDS011;4656;48.090;11.498;2023-04-08T01:32:10;9.93;;;7.60;;
8353;SDS011;4656;48.090;11.498;2023-04-08T01:34:13;11.45;;;7.72;;
8353;SDS011;4656;48.090;11.498;2023-04-08T01:36:16;11.80;;;7.82;;
8353;SDS011;4656;48.090;11.498;2023-04-08T01:38:19;9.30;;;6.90;;
8353;SDS011;4656;48.090;11.498;2023-04-08T01:40:21;11.00;;;7.75;;
8353;SDS011;4656;48.090;11.498;2023-04-08T01:42:29;11.75;;;8.57;;
8353;SDS011;4656;48.090;11.498;2023-04-08T01:44:32;11.10;;;7.70;;
8353;SDS011;4656;48.090;11.498;2023-04-08T01:46:36;10.52;;;6.93;;
8353;SDS011;4656;48.090;11.498;2023-04-08T01:48:39;9.00;;;6.80;;
8353;SDS011;4656;48.090;11.498;2023-04-08T01:50:42;10.80;;;8.20;;
8353;SDS011;4656;48.090;11.498;2023-04-08T01:52:46;9.82;;;7.13;;
8353;SDS011;4656;48.090;11.498;2023-04-08T01:54:51;9.82;;;7.13;;
8353;SDS011;4656;48.090;11.498;2023-04-08T01:56:53;13.02;;;7.78;;
8353;SDS011;4656;48.090;11.498;2023-04-08T01:58:57;10.88;;;7.82;;
8353;SDS011;4656;48.090;11.498;2023-04-08T02:01:01;10.48;;;7.72;;
8353;SDS011;4656;48.090;11.498;2023-04-08T02:03:04;11.95;;;7.70;;
8353;SDS011;4656;48.090;11.498;2023-04-08T02:05:07;10.38;;;7.97;;
8353;SDS011;4656;48.090;11.498;2023-04-08T02:07:09;12.05;;;7.95;;
8353;SDS011;4656;48.090;11.498;2023-04-08T02:09:12;13.38;;;9.35;;
8353;SDS011;4656;48.090;11.498;2023-04-08T02:11:14;11.25;;;7.93;;
8353;SDS011;4656;48.090;11.498;2023-04-08T02:13:16;12.38;;;7.63;;
8353;SDS011;4656;48.090;11.498;2023-04-08T02:15:20;13.73;;;7.45;;
8353;SDS011;4656;48.090;11.498;2023-04-08T02:17:32;9.52;;;7.63;;
8353;SDS011;4656;48.090;11.498;2023-04-08T02:19:39;10.90;;;7.75;;
8353;SDS011;4656;48.090;11.498;2023-04-08T02:21:43;9.88;;;7.45;;
8353;SDS011;4656;48.090;11.498;2023-04-08T02:23:47;9.38;;;6.85;;
8353;SDS011;4656;48.090;11.498;2023-04-08T02:25:50;12.57;;;7.78;;
8353;SDS011;4656;48.090;11.498;2023-04-08T02:27:53;12.07;;;7.55;;
8353;SDS011;4656;48.090;11.498;2023-04-08T02:29:56;12.75;;;7.90;;
8353;SDS011;4656;48.090;11.498;2023-04-08T02:32:01;10.63;;;7.88;;
8353;SDS011;4656;48.090;11.498;2023-04-08T02:34:05;10.38;;;7.60;;
8353;SDS011;4656;48.090;11.498;2023-04-08T02:36:07;13.32;;;8.25;;
8353;SDS011;4656;48.090;11.498;2023-04-08T02:38:10;13.10;;;7.75;;
8353;SDS011;4656;48.090;11.498;2023-04-08T02:40:22;13.02;;;8.20;;
8353;SDS011;4656;48.090;11.498;2023-04-08T02:42:24;13.00;;;8.83;;
8353;SDS011;4656;48.090;11.498;2023-04-08T02:44:26;14.30;;;8.73;;
8353;SDS011;4656;48.090;11.498;2023-04-08T02:46:29;10.48;;;8.02;;
8353;SDS011;4656;48.090;11.498;2023-04-08T02:48:32;11.60;;;7.93;;
8353;SDS011;4656;48.090;11.498;2023-04-08T02:50:35;11.60;;;7.93;;
8353;SDS011;4656;48.090;11.498;2023-04-08T02:52:37;14.00;;;8.85;;
8353;SDS011;4656;48.090;11.498;2023-04-08T02:54:39;13.77;;;8.45;;
8353;SDS011;4656;48.090;11.498;2023-04-08T02:56:41;12.88;;;8.40;;
8353;SDS011;4656;48.090;11.498;2023-04-08T02:58:43;13.25;;;7.72;;
8353;SDS011;4656;48.090;11.498;2023-04-08T03:00:45;11.90;;;8.65;;
8353;SDS011;4656;48.090;11.498;2023-04-08T03:02:47;12.38;;;9.27;;
8353;SDS011;4656;48.090;11.498;2023-04-08T03:04:51;13.65;;;8.60;;
8353;SDS011;4656;48.090;11.498;2023-04-08T03:06:53;13.00;;;8.82;;
8353;SDS011;4656;48.090;11.498;2023-04-08T03:08:55;14.73;;;10.20;;
8353;SDS011;4656;48.090;11.498;2023-04-08T03:10:59;11.05;;;8.50;;
8353;SDS011;4656;48.090;11.498;2023-04-08T03:13:01;18.38;;;9.93;;
8353;SDS011;4656;48.090;11.498;2023-04-08T03:15:04;15.20;;;9.60;;
8353;SDS011;4656;48.090;11.498;2023-04-08T03:17:06;12.80;;;8.68;;
8353;SDS011;4656;48.090;11.498;2023-04-08T03:19:08;15.45;;;9.85;;
8353;SDS011;4656;48.090;11.498;2023-04-08T03:21:12;14.00;;;9.82;;
8353;SDS011;4656;48.090;11.498;2023-04-08T03:23:14;13.77;;;9.00;;
8353;SDS011;4656;48.090;11.498;2023-04-08T03:25:18;12.18;;;8.85;;
8353;SDS011;4656;48.090;11.498;2023-04-08T03:27:20;15.85;;;9.52;;
8353;SDS011;4656;48.090;11.498;2023-04-08T03:29:22;15.50;;;10.05;;
8353;SDS011;4656;48.090;11.498;2023-04-08T03:31:24;15.65;;;9.32;;
8353;SDS011;4656;48.090;11.498;2023-04-08T03:33:26;11.23;;;8.70;;
8353;SDS011;4656;48.090;11.498;2023-04-08T03:35:28;12.37;;;9.00;;
8353;SDS011;4656;48.090;11.498;2023-04-08T03:37:33;14.38;;;9.45;;
8353;SDS011;4656;48.090;11.498;2023-04-08T03:39:35;18.60;;;10.80;;
8353;SDS011;4656;48.090;11.498;2023-04-08T03:41:37;15.32;;;10.15;;
8353;SDS011;4656;48.090;11.498;2023-04-08T03:43:39;14.15;;;9.82;;
8353;SDS011;4656;48.090;11.498;2023-04-08T03:45:41;12.00;;;8.73;;
8353;SDS011;4656;48.090;11.498;2023-04-08T03:47:43;15.25;;;8.95;;
8353;SDS011;4656;48.090;11.498;2023-04-08T03:49:46;11.85;;;8.75;;
8353;SDS011;4656;48.090;11.498;2023-04-08T03:51:48;12.70;;;9.13;;
8353;SDS011;4656;48.090;11.498;2023-04-08T03:53:52;16.20;;;9.15;;
8353;SDS011;4656;48.090;11.498;2023-04-08T03:55:54;12.30;;;8.95;;
8353;SDS011;4656;48.090;11.498;2023-04-08T03:57:57;14.40;;;9.20;;
8353;SDS011;4656;48.090;11.498;2023-04-08T03:59:59;18.83;;;10.57;;
8353;SDS011;4656;48.090;11.498;2023-04-08T04:02:01;15.35;;;9.93;;
8353;SDS011;4656;48.090;11.498;2023-04-08T04:04:03;17.00;;;9.73;;
8353;SDS011;4656;48.090;11.498;2023-04-08T04:06:05;13.60;;;9.20;;
8353;SDS011;4656;48.090;11.498;2023-04-08T04:08:07;15.57;;;10.43;;
8353;SDS011;4656;48.090;11.498;2023-04-08T04:10:11;16.48;;;10.02;;
8353;SDS011;4656;48.090;11.498;2023-04-08T04:12:13;15.52;;;9.38;;
8353;SDS011;4656;48.090;11.498;2023-04-08T04:14:15;14.35;;;9.90;;
8353;SDS011;4656;48.090;11.498;2023-04-08T04:16:17;14.68;;;9.82;;
8353;SDS011;4656;48.090;11.498;2023-04-08T04:18:20;12.93;;;9.50;;
8353;SDS011;4656;48.090;11.498;2023-04-08T04:20:22;16.75;;;10.73;;
8353;SDS011;4656;48.090;11.498;2023-04-08T04:22:25;16.08;;;9.68;;
8353;SDS011;4656;48.090;11.498;2023-04-08T04:24:27;15.77;;;10.05;;
8353;SDS011;4656;48.090;11.498;2023-04-08T04:26:30;15.20;;;10.23;;
8353;SDS011;4656;48.090;11.498;2023-04-08T04:28:32;17.30;;;11.20;;
8353;SDS011;4656;48.090;11.498;2023-04-08T04:30:35;19.20;;;11.57;;
8353;SDS011;4656;48.090;11.498;2023-04-08T04:32:37;17.83;;;11.48;;
8353;SDS011;4656;48.090;11.498;2023-04-08T04:34:39;14.88;;;11.13;;
8353;SDS011;4656;48.090;11.498;2023-04-08T04:36:43;17.60;;;10.90;;
8353;SDS011;4656;48.090;11.498;2023-04-08T04:38:45;14.98;;;10.95;;
8353;SDS011;4656;48.090;11.498;2023-04-08T04:40:47;14.73;;;10.52;;
8353;SDS011;4656;48.090;11.498;2023-04-08T04:42:51;14.35;;;9.85;;
8353;SDS011;4656;48.090;11.498;2023-04-08T04:44:53;17.75;;;11.05;;
8353;SDS011;4656;48.090;11.498;2023-04-08T04:46:55;14.68;;;10.48;;
8353;SDS011;4656;48.090;11.498;2023-04-08T04:48:57;17.35;;;11.13;;
8353;SDS011;4656;48.090;11.498;2023-04-08T04:50:59;17.30;;;10.63;;
8353;SDS011;4656;48.090;11.498;2023-04-08T04:53:02;19.95;;;11.40;;
8353;SDS011;4656;48.090;11.498;2023-04-08T04:55:04;13.82;;;10.45;;
8353;SDS011;4656;48.090;11.498;2023-04-08T04:57:10;16.67;;;10.68;;
8353;SDS011;4656;48.090;11.498;2023-04-08T04:59:13;15.45;;;10.07;;
8353;SDS011;4656;48.090;11.498;2023-04-08T05:01:15;14.35;;;11.00;;
8353;SDS011;4656;48.090;11.498;2023-04-08T05:03:17;15.90;;;11.07;;
8353;SDS011;4656;48.090;11.498;2023-04-08T05:05:20;14.52;;;10.60;;
8353;SDS011;4656;48.090;11.498;2023-04-08T05:07:22;16.88;;;10.70;;
8353;SDS011;4656;48.090;11.498;2023-04-08T05:09:24;14.85;;;11.25;;
8353;SDS011;4656;48.090;11.498;2023-04-08T05:11:26;16.90;;;11.85;;
8353;SDS011;4656;48.090;11.498;2023-04-08T05:13:28;19.23;;;11.85;;
8353;SDS011;4656;48.090;11.498;2023-04-08T05:15:32;17.40;;;12.30;;
8353;SDS011;4656;48.090;11.498;2023-04-08T05:17:34;18.65;;;12.45;;
8353;SDS011;4656;48.090;11.498;2023-04-08T05:19:37;17.35;;;12.25;;
8353;SDS011;4656;48.090;11.498;2023-04-08T05:21:39;19.00;;;12.80;;
8353;SDS011;4656;48.090;11.498;2023-04-08T05:23:42;20.60;;;13.23;;
8353;SDS011;4656;48.090;11.498;2023-04-08T05:25:44;20.20;;;13.13;;
8353;SDS011;4656;48.090;11.498;2023-04-08T05:27:46;18.80;;;12.87;;
8353;SDS011;4656;48.090;11.498;2023-04-08T05:29:48;17.33;;;12.80;;
8353;SDS011;4656;48.090;11.498;2023-04-08T05:31:52;18.38;;;11.63;;
8353;SDS011;4656;48.090;11.498;2023-04-08T05:33:55;18.13;;;12.70;;
8353;SDS011;4656;48.090;11.498;2023-04-08T05:35:57;17.85;;;12.68;;
8353;SDS011;4656;48.090;11.498;2023-04-08T05:37:59;16.98;;;11.35;;
8353;SDS011;4656;48.090;11.498;2023-04-08T05:40:03;17.20;;;11.90;;
8353;SDS011;4656;48.090;11.498;2023-04-08T05:42:05;17.80;;;12.02;;
8353;SDS011;4656;48.090;11.498;2023-04-08T05:44:07;16.48;;;12.02;;
8353;SDS011;4656;48.090;11.498;2023-04-08T05:46:09;16.50;;;12.18;;
8353;SDS011;4656;48.090;11.498;2023-04-08T05:48:14;16.60;;;12.02;;
8353;SDS011;4656;48.090;11.498;2023-04-08T05:50:16;16.77;;;11.63;;
8353;SDS011;4656;48.090;11.498;2023-04-08T05:52:18;16.52;;;11.73;;
8353;SDS011;4656;48.090;11.498;2023-04-08T05:54:20;16.08;;;11.90;;
8353;SDS011;4656;48.090;11.498;2023-04-08T05:56:22;17.17;;;11.68;;
8353;SDS011;4656;48.090;11.498;2023-04-08T05:58:24;15.18;;;11.80;;
8353;SDS011;4656;48.090;11.498;2023-04-08T06:00:26;15.38;;;11.15;;
8353;SDS011;4656;48.090;11.498;2023-04-08T06:02:28;18.30;;;12.50;;
8353;SDS011;4656;48.090;11.498;2023-04-08T06:04:32;15.50;;;11.35;;
8353;SDS011;4656;48.090;11.498;2023-04-08T06:06:36;14.63;;;11.20;;
8353;SDS011;4656;48.090;11.498;2023-04-08T06:08:38;13.60;;;11.38;;
8353;SDS011;4656;48.090;11.498;2023-04-08T06:10:47;15.70;;;11.38;;
8353;SDS011;4656;48.090;11.498;2023-04-08T06:12:49;14.80;;;11.23;;
8353;SDS011;4656;48.090;11.498;2023-04-08T06:14:52;13.00;;;10.32;;
8353;SDS011;4656;48.090;11.498;2023-04-08T06:16:55;14.57;;;11.02;;
8353;SDS011;4656;48.090;11.498;2023-04-08T06:18:57;15.30;;;12.25;;
8353;SDS011;4656;48.090;11.498;2023-04-08T06:21:01;15.05;;;11.68;;
8353;SDS011;4656;48.090;11.498;2023-04-08T06:23:03;15.70;;;12.18;;
8353;SDS011;4656;48.090;11.498;2023-04-08T06:25:05;14.57;;;11.63;;
8353;SDS011;4656;48.090;11.498;2023-04-08T06:27:08;16.30;;;12.57;;
8353;SDS011;4656;48.090;11.498;2023-04-08T06:29:10;16.70;;;12.05;;
8353;SDS011;4656;48.090;11.498;2023-04-08T06:31:12;16.02;;;11.27;;
8353;SDS011;4656;48.090;11.498;2023-04-08T06:33:14;14.35;;;11.32;;
8353;SDS011;4656;48.090;11.498;2023-04-08T06:35:16;15.77;;;11.33;;
8353;SDS011;4656;48.090;11.498;2023-04-08T06:37:20;18.20;;;11.50;;
8353;SDS011;4656;48.090;11.498;2023-04-08T06:39:22;16.05;;;12.07;;
8353;SDS011;4656;48.090;11.498;2023-04-08T06:41:24;14.77;;;11.73;;
8353;SDS011;4656;48.090;11.498;2023-04-08T06:43:26;13.95;;;11.57;;
8353;SDS011;4656;48.090;11.498;2023-04-08T06:45:28;15.07;;;11.95;;
8353;SDS011;4656;48.090;11.498;2023-04-08T06:47:30;13.35;;;11.07;;
8353;SDS011;4656;48.090;11.498;2023-04-08T06:49:33;14.38;;;12.02;;
8353;SDS011;4656;48.090;11.498;2023-04-08T06:51:36;14.55;;;11.93;;
8353;SDS011;4656;48.090;11.498;2023-04-08T06:53:39;16.52;;;12.55;;
8353;SDS011;4656;48.090;11.498;2023-04-08T06:55:42;16.45;;;12.10;;
8353;SDS011;4656;48.090;11.498;2023-04-08T06:57:44;16.77;;;12.55;;
8353;SDS011;4656;48.090;11.498;2023-04-08T06:59:46;15.57;;;11.43;;
8353;SDS011;4656;48.090;11.498;2023-04-08T07:01:48;18.00;;;12.30;;
8353;SDS011;4656;48.090;11.498;2023-04-08T07:03:50;17.88;;;12.95;;
8353;SDS011;4656;48.090;11.498;2023-04-08T07:05:52;17.30;;;13.27;;
8353;SDS011;4656;48.090;11.498;2023-04-08T07:07:54;16.33;;;14.02;;
8353;SDS011;4656;48.090;11.498;2023-04-08T07:09:58;19.20;;;13.77;;
8353;SDS011;4656;48.090;11.498;2023-04-08T07:12:00;19.63;;;15.18;;
8353;SDS011;4656;48.090;11.498;2023-04-08T07:14:02;18.23;;;14.02;;
8353;SDS011;4656;48.090;11.498;2023-04-08T07:16:07;18.77;;;14.77;;
8353;SDS011;4656;48.090;11.498;2023-04-08T07:18:10;20.13;;;15.10;;
8353;SDS011;4656;48.090;11.498;2023-04-08T07:20:12;21.27;;;15.63;;
8353;SDS011;4656;48.090;11.498;2023-04-08T07:22:14;19.67;;;15.50;;
8353;SDS011;4656;48.090;11.498;2023-04-08T07:24:17;20.47;;;15.33;;
8353;SDS011;4656;48.090;11.498;2023-04-08T07:26:20;21.80;;;15.93;;
8353;SDS011;4656;48.090;11.498;2023-04-08T07:28:23;20.40;;;15.13;;
8353;SDS011;4656;48.090;11.498;2023-04-08T07:30:25;19.63;;;14.82;;
8353;SDS011;4656;48.090;11.498;2023-04-08T07:32:27;20.02;;;15.45;;
8353;SDS011;4656;48.090;11.498;2023-04-08T07:34:33;18.45;;;14.60;;
8353;SDS011;4656;48.090;11.498;2023-04-08T07:36:35;19.85;;;14.07;;
8353;SDS011;4656;48.090;11.498;2023-04-08T07:38:38;16.80;;;13.65;;
8353;SDS011;4656;48.090;11.498;2023-04-08T07:40:41;17.70;;;14.02;;
8353;SDS011;4656;48.090;11.498;2023-04-08T07:42:44;19.27;;;15.03;;
8353;SDS011;4656;48.090;11.498;2023-04-08T07:44:49;16.88;;;13.45;;
8353;SDS011;4656;48.090;11.498;2023-04-08T07:46:51;20.13;;;14.27;;
8353;SDS011;4656;48.090;11.498;2023-04-08T07:48:53;16.45;;;13.88;;
8353;SDS011;4656;48.090;11.498;2023-04-08T07:50:55;17.27;;;14.03;;
8353;SDS011;4656;48.090;11.498;2023-04-08T07:52:58;18.10;;;14.55;;
8353;SDS011;4656;48.090;11.498;2023-04-08T07:55:00;17.10;;;13.75;;
8353;SDS011;4656;48.090;11.498;2023-04-08T07:57:02;15.50;;;12.05;;
8353;SDS011;4656;48.090;11.498;2023-04-08T07:59:05;18.93;;;15.03;;
8353;SDS011;4656;48.090;11.498;2023-04-08T08:01:14;16.77;;;13.52;;
8353;SDS011;4656;48.090;11.498;2023-04-08T08:03:17;15.43;;;12.18;;
8353;SDS011;4656;48.090;11.498;2023-04-08T08:05:20;16.05;;;11.52;;
8353;SDS011;4656;48.090;11.498;2023-04-08T08:07:22;14.65;;;12.13;;
8353;SDS011;4656;48.090;11.498;2023-04-08T08:09:26;16.00;;;11.87;;
8353;SDS011;4656;48.090;11.498;2023-04-08T08:11:28;14.48;;;12.40;;
8353;SDS011;4656;48.090;11.498;2023-04-08T08:13:33;16.75;;;13.52;;
8353;SDS011;4656;48.090;11.498;2023-04-08T08:15:37;17.42;;;13.18;;
8353;SDS011;4656;48.090;11.498;2023-04-08T08:17:39;15.85;;;12.52;;
8353;SDS011;4656;48.090;11.498;2023-04-08T08:19:42;15.95;;;11.65;;
8353;SDS011;4656;48.090;11.498;2023-04-08T08:21:44;15.65;;;12.25;;
8353;SDS011;4656;48.090;11.498;2023-04-08T08:23:46;15.35;;;12.10;;
8353;SDS011;4656;48.090;11.498;2023-04-08T08:25:48;15.07;;;11.30;;
8353;SDS011;4656;48.090;11.498;2023-04-08T08:27:50;13.35;;;11.55;;
8353;SDS011;4656;48.090;11.498;2023-04-08T08:29:52;15.93;;;12.93;;
8353;SDS011;4656;48.090;11.498;2023-04-08T08:31:57;15.80;;;12.52;;
8353;SDS011;4656;48.090;11.498;2023-04-08T08:33:59;16.55;;;12.00;;
8353;SDS011;4656;48.090;11.498;2023-04-08T08:36:01;16.23;;;13.07;;
8353;SDS011;4656;48.090;11.498;2023-04-08T08:38:04;16.05;;;11.63;;
8353;SDS011;4656;48.090;11.498;2023-04-08T08:40:07;20.67;;;14.15;;
8353;SDS011;4656;48.090;11.498;2023-04-08T08:42:17;20.77;;;14.80;;
8353;SDS011;4656;48.090;11.498;2023-04-08T08:44:20;19.52;;;15.20;;
8353;SDS011;4656;48.090;11.498;2023-04-08T08:46:22;19.00;;;14.47;;
8353;SDS011;4656;48.090;11.498;2023-04-08T08:48:26;21.73;;;15.70;;
8353;SDS011;4656;48.090;11.498;2023-04-08T08:50:28;19.70;;;15.57;;
8353;SDS011;4656;48.090;11.498;2023-04-08T08:52:30;21.48;;;16.55;;
8353;SDS011;4656;48.090;11.498;2023-04-08T08:54:32;21.00;;;16.13;;
8353;SDS011;4656;48.090;11.498;2023-04-08T08:56:34;20.53;;;15.00;;
8353;SDS011;4656;48.090;11.498;2023-04-08T08:58:36;20.55;;;15.43;;
8353;SDS011;4656;48.090;11.498;2023-04-08T09:00:39;20.95;;;14.95;;
8353;SDS011;4656;48.090;11.498;2023-04-08T09:02:43;19.73;;;15.82;;
8353;SDS011;4656;48.090;11.498;2023-04-08T09:04:50;19.23;;;15.50;;
8353;SDS011;4656;48.090;11.498;2023-04-08T09:07:09;24.55;;;17.52;;
8353;SDS011;4656;48.090;11.498;2023-04-08T09:09:12;21.40;;;16.40;;
8353;SDS011;4656;48.090;11.498;2023-04-08T09:11:15;23.83;;;17.45;;
8353;SDS011;4656;48.090;11.498;2023-04-08T09:13:17;19.10;;;15.38;;
8353;SDS011;4656;48.090;11.498;2023-04-08T09:15:19;20.38;;;14.90;;
8353;SDS011;4656;48.090;11.498;2023-04-08T09:17:30;21.88;;;15.82;;
8353;SDS011;4656;48.090;11.498;2023-04-08T09:19:35;26.75;;;17.17;;
8353;SDS011;4656;48.090;11.498;2023-04-08T09:21:39;22.33;;;16.80;;
8353;SDS011;4656;48.090;11.498;2023-04-08T09:23:41;26.90;;;18.58;;
8353;SDS011;4656;48.090;11.498;2023-04-08T09:25:44;22.48;;;16.58;;
8353;SDS011;4656;48.090;11.498;2023-04-08T09:27:46;22.58;;;16.92;;
8353;SDS011;4656;48.090;11.498;2023-04-08T09:29:48;25.73;;;18.40;;
8353;SDS011;4656;48.090;11.498;2023-04-08T09:31:52;25.02;;;17.67;;
8353;SDS011;4656;48.090;11.498;2023-04-08T09:33:55;25.52;;;17.75;;
8353;SDS011;4656;48.090;11.498;2023-04-08T09:35:57;25.38;;;19.02;;
8353;SDS011;4656;48.090;11.498;2023-04-08T09:38:01;25.70;;;18.50;;
8353;SDS011;4656;48.090;11.498;2023-04-08T09:40:05;20.77;;;16.10;;
8353;SDS011;4656;48.090;11.498;2023-04-08T09:42:07;25.13;;;18.73;;
8353;SDS011;4656;48.090;11.498;2023-04-08T09:44:10;30.05;;;19.70;;
8353;SDS011;4656;48.090;11.498;2023-04-08T09:46:12;25.40;;;18.08;;
8353;SDS011;4656;48.090;11.498;2023-04-08T09:48:16;24.57;;;17.77;;
8353;SDS011;4656;48.090;11.498;2023-04-08T09:50:19;27.80;;;19.50;;
8353;SDS011;4656;48.090;11.498;2023-04-08T09:52:28;25.02;;;17.40;;
8353;SDS011;4656;48.090;11.498;2023-04-08T09:54:34;24.08;;;18.48;;
8353;SDS011;4656;48.090;11.498;2023-04-08T09:56:41;23.77;;;17.33;;
8353;SDS011;4656;48.090;11.498;2023-04-08T09:58:46;26.15;;;17.67;;
8353;SDS011;4656;48.090;11.498;2023-04-08T10:00:50;26.63;;;18.90;;
8353;SDS011;4656;48.090;11.498;2023-04-08T10:02:53;21.60;;;15.77;;
8353;SDS011;4656;48.090;11.498;2023-04-08T10:04:56;21.65;;;16.73;;
8353;SDS011;4656;48.090;11.498;2023-04-08T10:07:01;21.27;;;16.70;;
8353;SDS011;4656;48.090;11.498;2023-04-08T10:09:05;21.40;;;17.00;;
8353;SDS011;4656;48.090;11.498;2023-04-08T10:11:09;20.52;;;15.55;;
8353;SDS011;4656;48.090;11.498;2023-04-08T10:13:11;19.80;;;15.55;;
8353;SDS011;4656;48.090;11.498;2023-04-08T10:15:23;19.52;;;16.40;;
8353;SDS011;4656;48.090;11.498;2023-04-08T10:17:25;23.67;;;18.42;;
8353;SDS011;4656;48.090;11.498;2023-04-08T10:19:36;22.38;;;16.25;;
8353;SDS011;4656;48.090;11.498;2023-04-08T10:21:42;23.05;;;17.10;;
8353;SDS011;4656;48.090;11.498;2023-04-08T10:23:54;19.42;;;15.70;;
8353;SDS011;4656;48.090;11.498;2023-04-08T10:25:58;19.40;;;14.88;;
8353;SDS011;4656;48.090;11.498;2023-04-08T10:28:22;18.55;;;15.23;;
8353;SDS011;4656;48.090;11.498;2023-04-08T10:32:49;18.27;;;14.38;;
8353;SDS011;4656;48.090;11.498;2023-04-08T10:34:53;17.10;;;13.20;;
8353;SDS011;4656;48.090;11.498;2023-04-08T10:36:57;17.85;;;14.63;;
8353;SDS011;4656;48.090;11.498;2023-04-08T10:39:01;17.13;;;13.35;;
8353;SDS011;4656;48.090;11.498;2023-04-08T10:41:03;15.65;;;13.07;;
8353;SDS011;4656;48.090;11.498;2023-04-08T10:43:07;17.08;;;14.23;;
8353;SDS011;4656;48.090;11.498;2023-04-08T10:45:10;14.95;;;13.07;;
8353;SDS011;4656;48.090;11.498;2023-04-08T10:47:12;16.70;;;13.13;;
8353;SDS011;4656;48.090;11.498;2023-04-08T10:49:14;14.88;;;12.50;;
8353;SDS011;4656;48.090;11.498;2023-04-08T10:51:16;13.38;;;11.98;;
8353;SDS011;4656;48.090;11.498;2023-04-08T10:53:22;15.35;;;11.88;;
8353;SDS011;4656;48.090;11.498;2023-04-08T10:55:27;14.73;;;12.60;;
8353;SDS011;4656;48.090;11.498;2023-04-08T10:57:29;14.68;;;12.77;;
8353;SDS011;4656;48.090;11.498;2023-04-08T10:59:32;14.70;;;12.70;;
8353;SDS011;4656;48.090;11.498;2023-04-08T11:01:38;14.37;;;11.60;;
8353;SDS011;4656;48.090;11.498;2023-04-08T11:03:42;14.27;;;11.93;;
8353;SDS011;4656;48.090;11.498;2023-04-08T11:05:44;14.30;;;11.50;;
8353;SDS011;4656;48.090;11.498;2023-04-08T11:07:46;14.88;;;12.45;;
8353;SDS011;4656;48.090;11.498;2023-04-08T11:09:49;14.38;;;11.98;;
8353;SDS011;4656;48.090;11.498;2023-04-08T11:11:51;16.40;;;12.90;;
8353;SDS011;4656;48.090;11.498;2023-04-08T11:13:53;14.85;;;12.85;;
8353;SDS011;4656;48.090;11.498;2023-04-08T11:15:58;17.95;;;13.38;;
8353;SDS011;4656;48.090;11.498;2023-04-08T11:18:01;17.92;;;13.48;;
8353;SDS011;4656;48.090;11.498;2023-04-08T11:20:04;17.52;;;14.25;;
8353;SDS011;4656;48.090;11.498;2023-04-08T11:22:07;15.55;;;13.07;;
8353;SDS011;4656;48.090;11.498;2023-04-08T11:24:10;16.60;;;13.47;;
8353;SDS011;4656;48.090;11.498;2023-04-08T11:26:13;18.20;;;14.65;;
8353;SDS011;4656;48.090;11.498;2023-04-08T11:28:16;16.73;;;13.35;;
8353;SDS011;4656;48.090;11.498;2023-04-08T11:30:21;17.63;;;13.38;;
8353;SDS011;4656;48.090;11.498;2023-04-08T11:32:25;16.55;;;13.40;;
8353;SDS011;4656;48.090;11.498;2023-04-08T11:34:27;18.00;;;13.75;;
8353;SDS011;4656;48.090;11.498;2023-04-08T11:36:30;18.35;;;14.43;;
8353;SDS011;4656;48.090;11.498;2023-04-08T11:38:34;16.55;;;13.80;;
8353;SDS011;4656;48.090;11.498;2023-04-08T11:40:40;17.92;;;14.60;;
8353;SDS011;4656;48.090;11.498;2023-04-08T11:42:52;18.30;;;14.38;;
8353;SDS011;4656;48.090;11.498;2023-04-08T11:44:55;19.27;;;14.90;;
8353;SDS011;4656;48.090;11.498;2023-04-08T11:46:57;18.77;;;14.77;;
8353;SDS011;4656;48.090;11.498;2023-04-08T11:49:03;18.27;;;15.02;;
8353;SDS011;4656;48.090;11.498;2023-04-08T11:51:07;19.35;;;14.45;;
8353;SDS011;4656;48.090;11.498;2023-04-08T11:53:15;19.75;;;15.65;;
8353;SDS011;4656;48.090;11.498;2023-04-08T11:55:22;19.63;;;14.77;;
8353;SDS011;4656;48.090;11.498;2023-04-08T11:57:27;22.15;;;15.85;;
8353;SDS011;4656;48.090;11.498;2023-04-08T11:59:32;20.23;;;14.90;;
8353;SDS011;4656;48.090;11.498;2023-04-08T12:01:35;18.47;;;14.67;;
8353;SDS011;4656;48.090;11.498;2023-04-08T12:03:37;20.00;;;16.00;;
8353;SDS011;4656;48.090;11.498;2023-04-08T12:05:41;19.67;;;15.93;;
8353;SDS011;4656;48.090;11.498;2023-04-08T12:07:43;17.65;;;14.00;;
8353;SDS011;4656;48.090;11.498;2023-04-08T12:09:48;18.63;;;14.77;;
8353;SDS011;4656;48.090;11.498;2023-04-08T12:11:50;21.75;;;16.95;;
8353;SDS011;4656;48.090;11.498;2023-04-08T12:13:53;18.63;;;14.98;;
8353;SDS011;4656;48.090;11.498;2023-04-08T12:15:55;19.58;;;15.57;;
8353;SDS011;4656;48.090;11.498;2023-04-08T12:17:58;21.75;;;16.27;;
8353;SDS011;4656;48.090;11.498;2023-04-08T12:20:00;21.20;;;17.33;;